Pagina principale
METAR-TAF:

METAR-TAF

Aeroporti :

Aeroporto di Milano-Malpensa

Milano, Italia

latitudine: 45-37N, longitudine: 008-44E, altezza: 234 m

Osservazione

Il bollettino è stato emesso 32 minuti fa, alle 17:20 UTC
Vento 4 kt da ovest, variando fra sud-ovest e ovest/nord-ovest
Temperature 22°C
Umidità 50%
Pressione 1014 hPa
Visibilità 10 km o più
nessuna nube inferiore a 1500 m e nessun cumulonembo

METAR: LIMC 311720Z 27004KT 220V300 CAVOK 22/11 Q1014 NOSIG

Ora: 19:52 (17:52 UTC)

Previsione

Il bollettino è stato emesso 52 minuti fa, alle 17:00 UTC
Previsione valida dal 31 alle 18 UTC al 01 alle 24 UTC
Vento 6 kt da direzioni variabili
Visibilità 10 km o più
Nubi sparse ad un'altezza di 4000 ft

TAF: LIMC 311700Z 3118/0124 VRB06KT 9999 SCT040

Osservazioni e previsioni meteorologiche di più di 4000 aeroporti (messaggi METAR e TAF).

Le stazioni disponibili sono rappresentate dai dischi gialli e rossi sulla carta.

Puntare il mouse per vedere il nome della stazione.

Clicca sopra per visualizzare le osservazioni e previsioni meteorologiche.

Per cambiare la mappa : fare clic sui pulsanti verdi con una croce nera per ingrandire, il pulsante verde con un trattino per diminuire, o sulla freccia verde per le mappe adiacenti.


METAR-TAF: